Time;durP1;ratioP1;P1;durP2;ratioP2;P2;SDS_P1;SDS_P2;PMS_P1;PMS_P2;Temp;Humidity;BMP_temperature;BMP_pressure;BME280_temperature;BME280_humidity;BME280_pressure;Samples;Min_cycle;Max_cycle;Signal;HPM_P1;HPM_P2
2021/01/16 00:02:04;;;;;;;2.65;2.03;;;21.70;29.60;;;;;;4994861;28;20093;-44
2021/01/16 00:04:30;;;;;;;2.78;1.92;;;21.70;29.60;;;;;;4994844;28;20026;-47
2021/01/16 00:06:55;;;;;;;3.35;2.10;;;21.70;29.60;;;;;;4994335;28;20117;-46
2021/01/16 00:09:21;;;;;;;3.33;2.15;;;21.60;29.60;;;;;;4993091;28;20133;-44
2021/01/16 00:11:48;;;;;;;3.25;2.33;;;21.60;29.60;;;;;;4994043;28;20072;-44
2021/01/16 00:14:14;;;;;;;3.05;2.15;;;21.60;29.60;;;;;;4983666;28;20026;-46
2021/01/16 00:16:41;;;;;;;3.05;2.10;;;21.60;29.60;;;;;;4994276;28;20371;-49
2021/01/16 00:19:07;;;;;;;2.72;2.20;;;21.60;29.60;;;;;;4993723;28;20083;-45
2021/01/16 00:21:32;;;;;;;2.45;1.85;;;21.60;29.60;;;;;;4994199;28;20038;-47
2021/01/16 00:23:58;;;;;;;2.85;2.33;;;21.60;29.70;;;;;;4994274;28;20082;-48
2021/01/16 00:26:24;;;;;;;2.58;2.10;;;21.60;29.70;;;;;;4991893;28;20453;-45
2021/01/16 00:28:50;;;;;;;2.55;2.03;;;21.50;29.60;;;;;;4993933;28;20113;-45
2021/01/16 00:31:15;;;;;;;3.53;2.30;;;21.50;29.60;;;;;;4994310;28;20045;-45
2021/01/16 00:33:42;;;;;;;3.00;2.25;;;21.50;29.60;;;;;;4994858;28;20030;-46
2021/01/16 00:36:09;;;;;;;2.63;2.15;;;21.50;29.60;;;;;;4994352;28;20054;-44
2021/01/16 00:38:42;;;;;;;2.40;1.95;;;21.50;29.50;;;;;;4994732;28;20088;-44
2021/01/16 00:41:08;;;;;;;2.63;1.95;;;21.50;29.50;;;;;;4994829;28;20034;-44
2021/01/16 00:43:34;;;;;;;3.75;2.10;;;21.50;29.60;;;;;;4994525;28;20031;-43
2021/01/16 00:46:00;;;;;;;3.22;2.17;;;21.50;29.50;;;;;;4994953;28;20037;-47
2021/01/16 00:48:26;;;;;;;2.67;2.33;;;21.50;29.60;;;;;;4993645;28;20084;-45
2021/01/16 00:50:57;;;;;;;2.35;1.92;;;21.50;29.50;;;;;;4994690;28;20026;-47
2021/01/16 00:53:38;;;;;;;5.43;2.50;;;21.50;29.50;;;;;;4993708;28;20023;-42
2021/01/16 00:56:11;;;;;;;2.95;2.08;;;21.40;29.50;;;;;;4994025;28;20343;-46
2021/01/16 00:58:49;;;;;;;2.35;1.85;;;21.40;29.50;;;;;;4983061;28;20040;-44
2021/01/16 01:01:28;;;;;;;2.60;2.10;;;21.40;29.50;;;;;;4993064;28;20343;-45
2021/01/16 01:03:53;;;;;;;2.65;1.85;;;21.40;29.50;;;;;;4976849;28;20030;-47
2021/01/16 01:06:19;;;;;;;3.00;2.13;;;21.40;29.60;;;;;;4978609;28;20481;-44
2021/01/16 01:08:45;;;;;;;3.20;2.00;;;21.40;29.60;;;;;;4994492;28;20601;-44
2021/01/16 01:11:11;;;;;;;2.92;1.95;;;21.40;29.60;;;;;;4993613;28;20030;-45
2021/01/16 01:13:37;;;;;;;2.30;1.92;;;21.40;29.60;;;;;;4993620;28;20042;-49
2021/01/16 01:16:02;;;;;;;2.67;1.83;;;21.40;29.60;;;;;;4994476;28;20034;-46
2021/01/16 01:18:28;;;;;;;2.58;1.95;;;21.40;29.60;;;;;;4994417;28;20537;-46
2021/01/16 01:20:54;;;;;;;2.28;1.90;;;21.40;29.60;;;;;;4993197;28;20113;-48
2021/01/16 01:23:20;;;;;;;3.33;2.10;;;21.30;29.50;;;;;;4994029;28;20069;-45
2021/01/16 01:25:45;;;;;;;2.90;2.20;;;21.30;29.60;;;;;;4993562;28;20038;-46
2021/01/16 01:28:11;;;;;;;2.58;2.20;;;21.30;29.60;;;;;;4994061;28;20034;-46
2021/01/16 01:30:37;;;;;;;3.20;2.28;;;21.30;29.60;;;;;;4993778;28;20030;-44
2021/01/16 01:33:03;;;;;;;3.38;2.20;;;21.30;29.50;;;;;;4993122;28;20034;-44
2021/01/16 01:35:29;;;;;;;2.38;1.85;;;21.30;29.50;;;;;;4993265;28;20042;-47
2021/01/16 01:37:56;;;;;;;2.35;1.98;;;21.30;29.50;;;;;;4993706;28;20034;-44
2021/01/16 01:40:24;;;;;;;2.50;1.73;;;21.20;29.50;;;;;;4993413;28;20026;-45
2021/01/16 01:42:52;;;;;;;2.53;1.88;;;21.20;29.50;;;;;;4993570;28;20541;-46
2021/01/16 01:45:18;;;;;;;3.00;2.30;;;21.30;29.50;;;;;;4993352;28;20045;-49
2021/01/16 01:47:45;;;;;;;2.78;1.73;;;21.30;29.50;;;;;;4993671;28;20049;-48
2021/01/16 01:50:13;;;;;;;2.55;1.88;;;21.20;29.50;;;;;;4993570;28;20030;-46
2021/01/16 01:52:40;;;;;;;2.33;1.88;;;21.20;29.50;;;;;;4992568;28;20034;-47
2021/01/16 01:55:09;;;;;;;3.03;1.90;;;21.20;29.50;;;;;;4993325;28;20097;-48
2021/01/16 01:57:38;;;;;;;2.08;1.65;;;21.20;29.50;;;;;;4992882;28;20041;-47
2021/01/16 02:00:07;;;;;;;2.90;2.10;;;21.20;29.50;;;;;;4993823;28;20022;-48
2021/01/16 02:02:39;;;;;;;2.25;1.88;;;21.20;29.50;;;;;;4993160;28;20066;-47
2021/01/16 02:05:07;;;;;;;3.30;2.08;;;21.20;29.50;;;;;;4974560;28;20343;-46
2021/01/16 02:07:39;;;;;;;2.53;1.70;;;21.20;29.50;;;;;;4992401;28;20132;-46
2021/01/16 02:10:19;;;;;;;2.28;1.95;;;21.20;29.50;;;;;;4992780;28;20124;-43
2021/01/16 02:12:46;;;;;;;2.30;1.73;;;21.20;29.50;;;;;;4992897;28;20101;-47
2021/01/16 02:15:38;;;;;;;2.70;1.75;;;21.10;29.50;;;;;;4993305;28;20121;-45
2021/01/16 02:18:13;;;;;;;2.53;1.90;;;21.10;29.50;;;;;;4993372;28;20026;-46
2021/01/16 02:20:44;;;;;;;2.55;1.85;;;21.10;29.50;;;;;;4990405;28;20061;-44
2021/01/16 02:23:12;;;;;;;2.22;1.70;;;21.10;29.50;;;;;;4992731;28;20022;-47
2021/01/16 02:25:41;;;;;;;2.50;1.65;;;21.10;29.50;;;;;;4992281;28;20034;-45
2021/01/16 02:28:17;;;;;;;3.10;2.00;;;21.10;29.50;;;;;;4992918;28;20113;-43
2021/01/16 02:30:44;;;;;;;2.03;1.67;;;21.10;29.50;;;;;;4992722;28;20038;-50
2021/01/16 02:33:17;;;;;;;2.63;1.83;;;21.10;29.50;;;;;;4975910;28;20038;-49
2021/01/16 02:36:17;;;;;;;2.15;1.58;;;21.10;29.50;;;;;;4992853;28;20062;-44
2021/01/16 02:38:49;;;;;;;2.33;1.60;;;21.10;29.40;;;;;;4988392;28;20427;-45
2021/01/16 02:41:31;;;;;;;1.92;1.60;;;21.00;29.40;;;;;;4992532;28;20065;-46
2021/01/16 02:44:07;;;;;;;2.53;1.73;;;21.00;29.30;;;;;;4990986;28;20100;-48
2021/01/16 02:46:43;;;;;;;3.17;1.73;;;21.00;29.30;;;;;;4989701;28;20532;-48
2021/01/16 02:49:33;;;;;;;2.08;1.50;;;21.00;29.40;;;;;;4992897;28;20034;-45
2021/01/16 02:52:12;;;;;;;1.85;1.63;;;21.00;29.30;;;;;;4990899;28;20366;-46
2021/01/16 02:54:42;;;;;;;2.25;1.63;;;21.00;29.30;;;;;;4991654;28;20030;-45
2021/01/16 02:57:10;;;;;;;1.90;1.70;;;21.00;29.30;;;;;;4992119;28;20114;-44
2021/01/16 02:59:41;;;;;;;2.75;2.10;;;21.00;29.30;;;;;;4992855;28;20311;-47
2021/01/16 03:02:09;;;;;;;2.20;1.90;;;21.00;29.30;;;;;;4993022;28;20077;-45
2021/01/16 03:04:36;;;;;;;2.55;1.90;;;21.00;29.20;;;;;;4993046;28;20050;-43
2021/01/16 03:07:07;;;;;;;2.05;1.58;;;21.00;29.20;;;;;;4995592;28;20026;-48
2021/01/16 03:09:34;;;;;;;2.33;1.80;;;21.00;29.70;;;;;;4993506;28;20049;-47
2021/01/16 03:12:00;;;;;;;2.53;2.03;;;21.00;29.20;;;;;;4993382;28;20022;-43
2021/01/16 03:14:34;;;;;;;2.47;1.75;;;21.00;29.20;;;;;;4993037;28;20026;-46
2021/01/16 03:17:14;;;;;;;2.78;1.80;;;21.00;29.20;;;;;;4992872;28;20035;-43
2021/01/16 03:19:48;;;;;;;2.28;1.98;;;20.90;29.20;;;;;;4993052;28;20037;-44
2021/01/16 03:22:28;;;;;;;2.13;1.73;;;20.90;29.20;;;;;;4992757;28;20046;-51
2021/01/16 03:24:58;;;;;;;2.45;1.80;;;20.90;29.20;;;;;;4991855;28;20126;-48
2021/01/16 03:27:25;;;;;;;2.38;2.17;;;20.90;29.20;;;;;;4992524;28;20121;-44
2021/01/16 03:29:52;;;;;;;2.47;1.67;;;20.90;29.20;;;;;;4992084;28;20030;-47
2021/01/16 03:32:19;;;;;;;2.30;1.83;;;20.90;29.20;;;;;;4993782;28;20101;-44
2021/01/16 03:34:46;;;;;;;2.10;1.70;;;20.90;29.20;;;;;;4995832;28;20130;-47
2021/01/16 03:37:13;;;;;;;2.03;1.55;;;20.90;29.20;;;;;;4995146;28;20045;-45
2021/01/16 03:39:40;;;;;;;2.45;1.83;;;20.90;29.30;;;;;;4997254;28;20030;-45
2021/01/16 03:42:06;;;;;;;2.10;1.90;;;20.90;29.40;;;;;;4996086;28;20121;-43
2021/01/16 03:44:33;;;;;;;2.03;1.83;;;20.80;29.40;;;;;;4996085;28;20026;-45
2021/01/16 03:46:59;;;;;;;3.15;2.20;;;20.90;29.40;;;;;;4995536;28;20453;-49
2021/01/16 03:49:25;;;;;;;2.20;1.85;;;20.90;29.40;;;;;;4978610;28;20026;-45
2021/01/16 03:51:50;;;;;;;2.80;1.70;;;20.90;29.30;;;;;;4995536;28;20042;-44
2021/01/16 03:54:16;;;;;;;3.03;2.08;;;20.80;29.30;;;;;;4995693;28;20030;-45
2021/01/16 03:56:42;;;;;;;2.35;1.80;;;20.90;29.30;;;;;;4995680;28;20041;-45
2021/01/16 03:59:08;;;;;;;2.83;1.88;;;20.80;29.30;;;;;;4996012;28;20034;-44
2021/01/16 04:01:34;;;;;;;2.30;1.77;;;20.80;29.30;;;;;;4995518;28;20023;-49
2021/01/16 04:04:01;;;;;;;3.38;1.80;;;20.80;29.30;;;;;;4994329;28;20030;-43
2021/01/16 04:06:27;;;;;;;2.38;1.83;;;20.80;29.40;;;;;;4995699;28;20026;-46
2021/01/16 04:08:53;;;;;;;2.42;1.95;;;20.80;29.40;;;;;;4995032;28;20097;-45
2021/01/16 04:11:19;;;;;;;2.58;2.00;;;20.80;29.40;;;;;;4995056;28;20030;-44
2021/01/16 04:13:46;;;;;;;2.00;1.80;;;20.80;29.40;;;;;;4994755;28;20081;-44
2021/01/16 04:16:11;;;;;;;2.25;1.85;;;20.80;29.30;;;;;;4995320;28;20413;-45
2021/01/16 04:18:37;;;;;;;3.38;2.10;;;20.80;29.30;;;;;;4995571;28;20023;-47
2021/01/16 04:21:04;;;;;;;2.33;1.65;;;20.70;29.30;;;;;;4995400;28;20018;-48
2021/01/16 04:23:29;;;;;;;1.95;1.67;;;20.80;29.30;;;;;;4994390;28;20038;-44
2021/01/16 04:25:56;;;;;;;2.72;2.10;;;20.80;29.30;;;;;;4994683;28;20044;-44
2021/01/16 04:28:21;;;;;;;2.70;2.03;;;20.80;29.30;;;;;;4994274;28;20031;-48
2021/01/16 04:30:48;;;;;;;2.72;1.98;;;20.80;29.40;;;;;;4994975;28;20460;-43
2021/01/16 04:33:13;;;;;;;2.33;1.85;;;20.70;29.30;;;;;;4995185;28;20363;-43
2021/01/16 04:35:40;;;;;;;5.60;2.53;;;20.70;29.40;;;;;;4994584;28;20038;-48
2021/01/16 04:38:06;;;;;;;2.30;1.80;;;20.80;29.30;;;;;;4994678;28;20026;-43
2021/01/16 04:40:32;;;;;;;1.70;1.48;;;20.70;29.30;;;;;;4994125;28;20710;-48
2021/01/16 04:43:00;;;;;;;2.13;1.50;;;20.70;29.30;;;;;;4994443;28;20065;-44
2021/01/16 04:45:26;;;;;;;2.40;1.98;;;20.70;29.30;;;;;;4994310;28;20049;-45
2021/01/16 04:47:56;;;;;;;2.45;1.60;;;20.70;29.30;;;;;;4995681;28;20110;-46
2021/01/16 04:50:29;;;;;;;2.88;2.00;;;20.70;29.30;;;;;;4994341;28;20030;-44
2021/01/16 04:53:04;;;;;;;2.90;2.03;;;20.70;29.30;;;;;;4994444;28;20099;-44
2021/01/16 04:55:32;;;;;;;2.10;1.80;;;20.70;29.30;;;;;;4992312;28;20050;-45
2021/01/16 04:58:09;;;;;;;1.98;1.70;;;20.70;29.40;;;;;;4994621;28;20034;-44
2021/01/16 05:00:44;;;;;;;2.42;1.80;;;20.70;29.30;;;;;;4993022;28;20045;-48
2021/01/16 05:03:12;;;;;;;3.30;1.85;;;20.70;29.20;;;;;;4994305;28;20049;-47
2021/01/16 05:05:40;;;;;;;2.60;1.80;;;20.70;29.30;;;;;;4976790;28;20022;-44
2021/01/16 05:08:07;;;;;;;2.17;1.65;;;20.70;29.20;;;;;;4994124;28;20030;-45
2021/01/16 05:10:40;;;;;;;2.38;1.92;;;20.60;29.20;;;;;;4992815;28;20041;-47
2021/01/16 05:13:10;;;;;;;2.28;1.90;;;20.60;29.80;;;;;;4992871;28;20042;-48
2021/01/16 05:15:38;;;;;;;2.20;1.80;;;20.60;29.20;;;;;;4994012;28;20038;-46
2021/01/16 05:18:11;;;;;;;2.95;1.83;;;20.60;29.20;;;;;;4977600;28;20046;-47
2021/01/16 05:20:41;;;;;;;3.22;1.95;;;20.60;29.20;;;;;;4992256;28;20069;-45
2021/01/16 05:23:13;;;;;;;2.95;2.13;;;20.60;29.30;;;;;;4993629;28;20041;-47
2021/01/16 05:25:41;;;;;;;2.13;1.80;;;20.60;29.20;;;;;;4993759;28;20049;-43
2021/01/16 05:28:08;;;;;;;1.77;1.60;;;20.60;29.20;;;;;;4992974;28;20034;-47
2021/01/16 05:30:49;;;;;;;2.10;1.90;;;20.60;29.20;;;;;;4993999;28;20416;-44
2021/01/16 05:33:15;;;;;;;2.08;1.73;;;20.60;29.20;;;;;;4993140;28;20037;-45
2021/01/16 05:35:42;;;;;;;2.03;1.67;;;20.60;29.20;;;;;;4993831;28;20062;-46
2021/01/16 05:38:09;;;;;;;2.28;1.90;;;20.60;29.20;;;;;;4993355;28;20338;-44
2021/01/16 05:40:36;;;;;;;1.90;1.77;;;20.60;29.20;;;;;;4993973;28;20030;-44
2021/01/16 05:43:03;;;;;;;2.67;2.10;;;20.60;29.20;;;;;;4993448;28;20055;-46
2021/01/16 05:45:35;;;;;;;2.08;1.75;;;20.60;29.20;;;;;;4994449;28;20030;-47
2021/01/16 05:48:05;;;;;;;2.58;2.00;;;20.60;29.20;;;;;;4991171;28;20022;-44
2021/01/16 05:50:38;;;;;;;1.90;1.70;;;20.60;29.20;;;;;;4993516;28;20093;-45
2021/01/16 05:53:04;;;;;;;1.95;1.65;;;20.50;29.30;;;;;;4974234;28;20058;-48
2021/01/16 05:55:34;;;;;;;1.95;1.65;;;20.50;29.30;;;;;;4992339;28;20121;-48
2021/01/16 05:58:05;;;;;;;2.05;1.60;;;20.50;29.30;;;;;;4993445;28;20773;-48
2021/01/16 06:00:40;;;;;;;1.70;1.58;;;20.50;29.30;;;;;;4993565;28;20469;-49
2021/01/16 06:03:08;;;;;;;1.60;1.45;;;20.50;29.30;;;;;;4992631;28;20048;-46
2021/01/16 06:05:35;;;;;;;4.45;1.70;;;20.50;29.30;;;;;;4990503;28;20027;-47
2021/01/16 06:08:01;;;;;;;1.98;1.50;;;20.50;29.30;;;;;;4993700;28;20030;-45
2021/01/16 06:10:31;;;;;;;2.20;1.52;;;20.50;29.30;;;;;;4993117;28;20030;-48
2021/01/16 06:13:10;;;;;;;2.40;1.88;;;20.50;29.30;;;;;;4992992;28;20134;-45
2021/01/16 06:15:43;;;;;;;2.45;1.80;;;20.50;29.30;;;;;;4991100;28;20513;-48
2021/01/16 06:18:17;;;;;;;2.30;1.73;;;20.50;29.30;;;;;;4993122;28;20030;-46
2021/01/16 06:20:49;;;;;;;2.30;1.70;;;20.50;29.30;;;;;;4992829;28;21296;-48
2021/01/16 06:23:17;;;;;;;2.47;2.00;;;20.50;29.30;;;;;;4990915;28;20027;-45
2021/01/16 06:25:48;;;;;;;2.17;1.98;;;20.40;29.20;;;;;;4992890;28;20036;-44
2021/01/16 06:28:21;;;;;;;2.50;1.88;;;20.50;29.30;;;;;;4992986;28;20462;-46
2021/01/16 06:30:52;;;;;;;2.40;1.95;;;20.50;29.30;;;;;;4993515;28;20450;-46
2021/01/16 06:33:25;;;;;;;2.55;1.75;;;20.40;29.20;;;;;;4992418;28;20076;-48
2021/01/16 06:35:56;;;;;;;2.53;1.83;;;20.50;29.30;;;;;;4991469;28;20042;-45
2021/01/16 06:38:31;;;;;;;2.33;1.58;;;20.50;29.30;;;;;;4991215;28;20030;-47
2021/01/16 06:41:14;;;;;;;2.15;1.70;;;20.50;29.30;;;;;;4991831;28;20030;-47
2021/01/16 06:43:45;;;;;;;3.00;1.80;;;20.40;29.20;;;;;;4993502;28;20049;-45
2021/01/16 06:46:15;;;;;;;2.13;1.67;;;20.40;29.20;;;;;;4977484;28;20034;-46
2021/01/16 06:48:44;;;;;;;2.38;1.70;;;20.40;29.20;;;;;;4991354;28;20460;-48
2021/01/16 06:51:12;;;;;;;2.25;1.60;;;20.40;29.20;;;;;;4994146;28;20031;-45
2021/01/16 06:53:41;;;;;;;1.95;1.58;;;20.40;29.30;;;;;;4992739;28;20117;-46
2021/01/16 06:56:09;;;;;;;1.88;1.50;;;20.40;29.30;;;;;;4992275;28;20038;-46
2021/01/16 06:58:40;;;;;;;2.60;2.00;;;20.40;29.20;;;;;;4992932;28;20080;-46
2021/01/16 07:01:07;;;;;;;2.15;1.60;;;20.40;29.30;;;;;;4990631;28;20039;-48
2021/01/16 07:03:39;;;;;;;1.70;1.50;;;20.40;29.30;;;;;;4992495;28;20114;-46
2021/01/16 07:06:06;;;;;;;1.98;1.70;;;20.40;29.20;;;;;;4992801;28;20085;-47
2021/01/16 07:08:33;;;;;;;2.20;1.75;;;20.40;29.20;;;;;;4996006;28;20030;-47
2021/01/16 07:11:00;;;;;;;2.53;2.00;;;20.40;29.30;;;;;;4995313;28;20410;-46
2021/01/16 07:13:26;;;;;;;1.85;1.40;;;20.40;29.30;;;;;;4996465;28;20038;-44
2021/01/16 07:15:53;;;;;;;2.17;1.67;;;20.40;29.20;;;;;;4997192;28;20108;-47
2021/01/16 07:18:19;;;;;;;2.70;1.77;;;20.40;29.20;;;;;;4995763;28;20038;-46
2021/01/16 07:20:48;;;;;;;2.97;1.92;;;20.40;29.20;;;;;;4996037;28;20031;-46
2021/01/16 07:23:17;;;;;;;3.17;2.00;;;20.40;29.20;;;;;;4995850;28;20117;-45
2021/01/16 07:25:43;;;;;;;1.58;1.33;;;20.40;29.20;;;;;;4996149;28;20038;-49
2021/01/16 07:28:10;;;;;;;3.05;1.88;;;20.40;29.20;;;;;;4995528;28;20041;-45
2021/01/16 07:30:36;;;;;;;2.60;1.90;;;20.40;29.20;;;;;;4996412;28;20033;-47
2021/01/16 07:33:04;;;;;;;2.67;1.77;;;20.40;29.20;;;;;;4996507;28;20048;-47
2021/01/16 07:35:31;;;;;;;2.90;2.03;;;20.40;29.20;;;;;;4996419;28;20358;-46
2021/01/16 07:37:56;;;;;;;3.25;1.85;;;20.30;29.20;;;;;;4995992;28;20034;-47
2021/01/16 07:40:28;;;;;;;1.80;1.60;;;20.30;29.20;;;;;;4995873;28;20421;-45
2021/01/16 07:42:56;;;;;;;3.33;2.00;;;20.30;29.20;;;;;;4995911;28;20120;-47
2021/01/16 07:45:29;;;;;;;2.53;1.67;;;20.30;29.20;;;;;;4995148;28;20097;-47
2021/01/16 07:47:59;;;;;;;2.22;1.92;;;20.30;29.20;;;;;;4995909;28;20034;-48
2021/01/16 07:50:30;;;;;;;2.33;1.75;;;20.30;29.30;;;;;;4995653;28;20018;-48
2021/01/16 07:53:01;;;;;;;2.38;1.90;;;20.30;29.30;;;;;;4995736;28;20026;-44
2021/01/16 07:55:36;;;;;;;2.53;2.00;;;20.30;29.20;;;;;;4993602;28;20038;-48
2021/01/16 07:58:32;;;;;;;2.95;2.40;;;20.30;29.20;;;;;;4995760;28;20460;-48
2021/01/16 08:01:30;;;;;;;2.35;1.85;;;20.30;29.20;;;;;;4995008;28;20030;-43
2021/01/16 08:04:26;;;;;;;2.33;1.77;;;20.30;29.20;;;;;;4994463;28;20469;-45
2021/01/16 08:07:09;;;;;;;2.70;2.13;;;20.30;29.20;;;;;;4995544;28;20042;-44
2021/01/16 08:09:41;;;;;;;2.97;2.13;;;20.30;29.20;;;;;;4995127;28;20037;-50
2021/01/16 08:12:12;;;;;;;2.70;2.03;;;20.30;29.20;;;;;;4977583;28;20361;-49
2021/01/16 08:14:39;;;;;;;2.47;2.03;;;20.30;29.20;;;;;;4995176;28;20019;-46
2021/01/16 08:17:15;;;;;;;2.92;2.28;;;20.30;29.20;;;;;;4994808;28;20120;-46
2021/01/16 08:19:59;;;;;;;4.65;2.20;;;20.20;29.30;;;;;;4992669;28;20046;-52
2021/01/16 08:22:38;;;;;;;5.65;2.03;;;20.20;29.50;;;;;;4992765;28;20030;-54
2021/01/16 08:25:11;;;;;;;4.43;1.83;;;20.30;30.00;;;;;;4994435;28;20124;-50
2021/01/16 08:27:46;;;;;;;4.97;2.50;;;20.30;30.30;;;;;;4993518;28;20044;-50
2021/01/16 08:30:20;;;;;;;6.05;2.67;;;20.30;30.60;;;;;;4995692;28;20030;-57
2021/01/16 08:33:07;;;;;;;6.47;2.72;;;20.40;30.60;;;;;;4994167;28;20033;-53
2021/01/16 08:35:39;;;;;;;5.93;2.53;;;20.40;30.40;;;;;;4979908;28;20089;-49
2021/01/16 08:38:17;;;;;;;4.00;2.20;;;20.50;30.20;;;;;;4995067;28;20064;-50
2021/01/16 08:41:03;;;;;;;9.07;3.00;;;20.60;30.00;;;;;;4994849;28;20087;-51
2021/01/16 08:43:39;;;;;;;6.20;2.70;;;20.70;30.00;;;;;;4993630;28;20541;-51
2021/01/16 08:46:15;;;;;;;6.68;2.70;;;20.90;29.90;;;;;;4994178;28;20461;-49
2021/01/16 08:49:04;;;;;;;4.45;2.60;;;21.00;29.70;;;;;;4995075;28;20110;-48
2021/01/16 08:51:53;;;;;;;5.35;3.10;;;21.20;29.60;;;;;;4993831;28;20035;-50
2021/01/16 08:54:23;;;;;;;6.75;2.92;;;21.30;29.60;;;;;;4993922;28;20092;-48
2021/01/16 08:56:51;;;;;;;5.55;2.80;;;21.30;29.50;;;;;;4994004;28;20065;-49
2021/01/16 08:59:33;;;;;;;6.80;3.13;;;21.40;29.40;;;;;;4995058;28;20030;-48
2021/01/16 09:02:13;;;;;;;4.47;2.83;;;21.60;29.40;;;;;;4993380;28;20541;-50
2021/01/16 09:04:40;;;;;;;6.22;2.88;;;21.70;29.40;;;;;;4993610;28;20022;-52
2021/01/16 09:07:22;;;;;;;5.20;3.28;;;21.80;29.30;;;;;;4978880;28;20134;-47
2021/01/16 09:10:00;;;;;;;7.88;3.33;;;21.90;29.30;;;;;;4993096;28;20113;-50
2021/01/16 09:12:31;;;;;;;6.57;3.30;;;22.00;29.20;;;;;;4995605;28;20323;-51
2021/01/16 09:15:25;;;;;;;6.28;3.03;;;22.00;29.20;;;;;;4993768;28;20086;-50
2021/01/16 09:18:15;;;;;;;5.72;3.22;;;22.10;29.10;;;;;;4983090;28;20041;-47
2021/01/16 09:20:45;;;;;;;4.82;3.13;;;22.30;29.10;;;;;;4994502;28;20470;-49
2021/01/16 09:23:19;;;;;;;6.25;3.67;;;22.30;29.00;;;;;;4991499;28;20038;-54
2021/01/16 09:25:54;;;;;;;4.57;2.70;;;22.40;29.40;;;;;;4995924;28;20255;-51
2021/01/16 09:28:40;;;;;;;6.07;3.30;;;22.50;28.90;;;;;;4991947;28;20045;-49
2021/01/16 09:31:29;;;;;;;6.00;3.22;;;22.60;29.30;;;;;;4993207;28;20026;-48
2021/01/16 09:34:00;;;;;;;6.00;2.90;;;22.70;28.70;;;;;;4985461;28;20125;-48
2021/01/16 09:36:52;;;;;;;6.45;3.03;;;22.80;28.70;;;;;;4991840;28;20042;-43
2021/01/16 09:39:24;;;;;;;5.53;2.90;;;22.90;28.60;;;;;;4993350;28;20030;-45
2021/01/16 09:41:53;;;;;;;4.55;2.80;;;22.90;28.50;;;;;;4974230;28;20109;-44
2021/01/16 09:44:37;;;;;;;5.93;3.10;;;23.00;28.50;;;;;;4993466;28;20362;-46
2021/01/16 09:47:23;;;;;;;5.20;3.05;;;23.00;28.30;;;;;;4993264;28;20061;-46
2021/01/16 09:49:49;;;;;;;5.22;3.00;;;23.10;28.30;;;;;;4992965;28;20438;-45
2021/01/16 09:52:16;;;;;;;7.13;3.00;;;23.10;28.20;;;;;;4992916;28;20065;-45
2021/01/16 09:54:42;;;;;;;5.72;3.20;;;23.20;28.10;;;;;;4990715;28;20030;-48
2021/01/16 09:57:10;;;;;;;7.25;3.47;;;23.20;28.10;;;;;;4975864;28;20042;-45
2021/01/16 09:59:36;;;;;;;4.97;3.50;;;23.20;28.00;;;;;;4993259;28;20026;-46
2021/01/16 10:02:09;;;;;;;6.60;3.53;;;23.30;27.80;;;;;;4991680;28;20018;-47
2021/01/16 10:04:45;;;;;;;5.88;3.40;;;23.30;27.60;;;;;;4990216;28;20034;-48
2021/01/16 10:07:15;;;;;;;5.75;3.10;;;23.40;27.50;;;;;;4994641;28;20034;-46
2021/01/16 10:09:46;;;;;;;6.90;3.17;;;23.40;27.40;;;;;;4992134;28;20442;-46
2021/01/16 10:12:34;;;;;;;7.18;3.35;;;23.50;27.30;;;;;;4993032;28;20034;-46
2021/01/16 10:15:05;;;;;;;3.83;2.83;;;23.50;27.30;;;;;;4993036;28;20026;-48
2021/01/16 10:17:35;;;;;;;5.40;3.38;;;23.50;27.30;;;;;;4992707;28;20041;-44
2021/01/16 10:20:18;;;;;;;4.53;3.30;;;23.50;27.30;;;;;;4990620;28;20448;-44
2021/01/16 10:22:52;;;;;;;5.35;3.10;;;23.50;27.30;;;;;;4992172;28;20042;-45
2021/01/16 10:25:20;;;;;;;4.40;2.92;;;23.50;27.20;;;;;;4991717;28;20050;-48
2021/01/16 10:27:52;;;;;;;4.85;3.05;;;23.50;27.20;;;;;;4992835;28;20034;-48
2021/01/16 10:30:29;;;;;;;5.43;3.40;;;23.50;27.20;;;;;;4993594;28;20362;-45
2021/01/16 10:32:56;;;;;;;3.30;2.58;;;23.60;27.20;;;;;;4993330;28;20027;-44
2021/01/16 10:35:28;;;;;;;4.07;2.90;;;23.60;27.30;;;;;;4990721;28;20038;-47
2021/01/16 10:37:56;;;;;;;4.80;3.17;;;23.50;27.30;;;;;;4992848;28;20418;-43
2021/01/16 10:40:25;;;;;;;5.20;3.13;;;23.60;27.40;;;;;;4992435;28;20034;-45
2021/01/16 10:42:56;;;;;;;4.90;3.00;;;23.60;27.50;;;;;;4996857;28;20056;-49
2021/01/16 10:45:27;;;;;;;4.40;3.03;;;23.60;28.00;;;;;;4999365;28;20045;-49
2021/01/16 10:47:55;;;;;;;5.03;3.30;;;23.50;27.50;;;;;;4999662;28;20034;-45
2021/01/16 10:50:29;;;;;;;4.43;3.00;;;23.60;27.60;;;;;;4999262;28;20030;-47
2021/01/16 10:53:06;;;;;;;4.03;3.00;;;23.50;27.70;;;;;;4999126;28;20034;-47
2021/01/16 10:55:55;;;;;;;4.13;2.97;;;23.60;27.80;;;;;;4999370;28;20079;-46
2021/01/16 10:58:25;;;;;;;4.38;2.90;;;23.60;27.90;;;;;;4998904;28;20448;-46
2021/01/16 11:00:57;;;;;;;4.03;3.05;;;23.60;28.00;;;;;;4997540;28;20041;-44
2021/01/16 11:03:28;;;;;;;3.83;2.90;;;23.60;28.00;;;;;;4998889;28;20030;-42
2021/01/16 11:05:56;;;;;;;3.85;2.83;;;23.60;28.10;;;;;;4996366;28;20060;-42
2021/01/16 11:08:29;;;;;;;4.13;2.63;;;23.60;28.10;;;;;;4998036;28;20030;-43
2021/01/16 11:10:59;;;;;;;4.28;3.08;;;23.60;28.10;;;;;;4998821;28;20030;-48
2021/01/16 11:13:30;;;;;;;4.18;3.13;;;23.60;28.20;;;;;;4998911;28;20044;-44
2021/01/16 11:16:16;;;;;;;4.03;3.15;;;23.60;28.70;;;;;;4999101;28;20042;-43
2021/01/16 11:18:43;;;;;;;3.50;2.85;;;23.70;28.30;;;;;;4998553;28;20042;-54
2021/01/16 11:21:11;;;;;;;3.22;2.85;;;23.60;28.20;;;;;;4998866;28;20034;-45
2021/01/16 11:23:43;;;;;;;4.18;3.00;;;23.60;28.20;;;;;;4998821;28;20058;-43
2021/01/16 11:26:10;;;;;;;3.22;2.80;;;23.70;28.10;;;;;;4998879;28;20442;-44
2021/01/16 11:28:55;;;;;;;4.20;2.78;;;23.70;28.10;;;;;;4998473;28;20037;-45
2021/01/16 11:31:34;;;;;;;3.38;2.70;;;23.70;28.00;;;;;;4996889;28;20176;-47
2021/01/16 11:34:21;;;;;;;4.00;2.92;;;23.70;27.90;;;;;;4998542;28;20045;-44
2021/01/16 11:36:53;;;;;;;3.70;2.95;;;23.70;27.80;;;;;;4996006;28;20414;-46
2021/01/16 11:39:49;;;;;;;4.78;2.80;;;23.70;28.20;;;;;;4999080;28;20044;-43
2021/01/16 11:42:16;;;;;;;4.28;2.70;;;23.70;27.60;;;;;;4997628;28;20057;-48
2021/01/16 11:44:59;;;;;;;11.45;4.18;;;23.70;27.70;;;;;;4999849;28;20049;-44
2021/01/16 11:47:27;;;;;;;8.27;2.65;;;23.70;27.70;;;;;;4997999;28;20026;-44
2021/01/16 11:49:56;;;;;;;3.67;2.67;;;23.70;27.60;;;;;;4999255;28;20093;-43
2021/01/16 11:52:22;;;;;;;3.17;2.40;;;23.70;27.40;;;;;;4996895;28;20058;-44
2021/01/16 11:54:51;;;;;;;4.05;2.80;;;23.70;27.20;;;;;;4998506;28;20429;-46
2021/01/16 11:57:24;;;;;;;3.75;2.75;;;23.70;27.20;;;;;;4993482;28;20389;-56
2021/01/16 11:59:51;;;;;;;4.57;2.53;;;23.70;27.00;;;;;;4990586;28;20078;-48
2021/01/16 12:02:20;;;;;;;4.15;2.20;;;23.70;27.20;;;;;;4997351;28;20446;-50
2021/01/16 12:04:46;;;;;;;3.72;2.75;;;23.70;27.30;;;;;;4992014;28;20080;-49
2021/01/16 12:07:17;;;;;;;3.30;2.33;;;23.70;27.40;;;;;;4991329;28;20588;-46
2021/01/16 12:09:45;;;;;;;3.03;2.58;;;23.70;27.20;;;;;;4990538;28;20061;-51
2021/01/16 12:12:12;;;;;;;3.08;2.33;;;23.80;27.10;;;;;;4993663;28;20057;-46
2021/01/16 12:14:39;;;;;;;4.00;2.67;;;23.80;27.00;;;;;;4992768;28;20058;-47
2021/01/16 12:17:13;;;;;;;3.20;2.42;;;23.80;26.80;;;;;;4993491;28;20534;-50
2021/01/16 12:19:40;;;;;;;3.28;2.55;;;23.90;26.80;;;;;;4995902;28;20380;-48
2021/01/16 12:22:10;;;;;;;2.83;2.20;;;23.90;26.90;;;;;;4993057;28;20619;-47
2021/01/16 12:24:37;;;;;;;3.83;2.60;;;23.90;26.90;;;;;;4988397;28;21060;-45
2021/01/16 12:27:05;;;;;;;3.65;2.80;;;23.90;26.90;;;;;;4990300;28;20094;-46
2021/01/16 12:29:46;;;;;;;4.80;2.35;;;24.00;27.00;;;;;;4992248;28;20039;-43
2021/01/16 12:32:14;;;;;;;2.92;2.13;;;24.00;27.00;;;;;;4993522;28;20088;-46
2021/01/16 12:34:46;;;;;;;3.85;2.63;;;24.00;27.00;;;;;;4991634;28;20038;-49
2021/01/16 12:37:13;;;;;;;3.10;2.50;;;24.10;27.20;;;;;;4990089;28;20049;-51
2021/01/16 12:39:44;;;;;;;3.20;2.35;;;24.10;27.30;;;;;;4991796;28;20122;-47
2021/01/16 12:42:11;;;;;;;3.65;2.30;;;24.20;27.20;;;;;;4993381;28;20488;-51
2021/01/16 12:44:36;;;;;;;3.88;2.30;;;24.30;27.20;;;;;;4990996;28;20034;-54
2021/01/16 12:47:03;;;;;;;5.30;2.45;;;24.30;27.20;;;;;;4991947;28;20034;-48
2021/01/16 12:49:29;;;;;;;4.07;2.42;;;24.30;27.10;;;;;;4976314;28;20099;-47
2021/01/16 12:51:55;;;;;;;3.58;2.40;;;24.40;27.10;;;;;;4991482;28;20064;-49
2021/01/16 12:54:20;;;;;;;3.97;2.60;;;24.50;27.00;;;;;;4994562;28;20494;-45
2021/01/16 12:56:48;;;;;;;3.95;2.17;;;24.60;27.00;;;;;;4978927;28;20133;-47
2021/01/16 12:59:15;;;;;;;3.50;2.30;;;24.60;26.90;;;;;;4975640;28;20027;-45
2021/01/16 13:01:45;;;;;;;3.38;2.63;;;24.70;26.80;;;;;;4989129;28;20025;-48
2021/01/16 13:04:11;;;;;;;2.63;1.90;;;24.70;26.60;;;;;;4994640;28;20076;-47
2021/01/16 13:06:39;;;;;;;2.25;2.00;;;24.80;26.50;;;;;;4994436;28;20034;-45
2021/01/16 13:09:07;;;;;;;2.60;2.05;;;24.80;26.50;;;;;;4989405;28;20034;-44